• Join FlightAware (Why Join?)
  • Login
  • US Flag 
12:26AM EDT


 

Airport Tracker/Info


-or-


 

Live Flight TrackerFlight Track Log ✈ VH-TRO ✈ 19-May-2013 ✈ YBAF - YBAF

Flight Track Log - Related Links

Times and Time Zones

All times are in EDT time to prevent confusion due to time zone crossing. See the VH-TRO flight status page for this flight to view local times or setup timezone preferences in your user account.

Time Position Orientation Groundspeed Altitude Reporting Facility
EDT Latitude Longitude Course Direction KTS MPH feet Rate Location/Type
07:43PM -27.5296 152.9569 334° Northwest 162 186 1,700  Level Aus ATC (RADAR)
07:43PM -27.5177 152.9504 334° Northwest 148 170 1,600 -360 Descending Aus ATC (RADAR)
07:43PM -27.4923 152.9385 337° Northwest 166 191 1,400 -120 Descending Aus ATC (RADAR)
07:44PM -27.4597 152.9325 351° North 178 205 1,500 60 Climbing Aus ATC (RADAR)
07:45PM -27.4393 152.9293 352° North 179 206 1,500 60 Level Aus ATC (RADAR)
07:45PM -27.4101 152.9257 354° North 180 207 1,600 60 Climbing Aus ATC (RADAR)
07:46PM -27.3767 152.9222 355° North 180 207 1,600  Level Aus ATC (RADAR)
07:46PM -27.3558 152.9203 355° North 180 207 1,600  Level Aus ATC (RADAR)
07:47PM -27.3126 152.9176 357° North 187 215 1,600 120 Level Aus ATC (RADAR)
07:47PM -27.2993 152.9323 44° Northeast 205 236 1,800 -180 Climbing Aus ATC (RADAR)
07:48PM -27.2940 152.9582 77° East 203 234 1,500 -420 Descending Aus ATC (RADAR)
07:48PM -27.2891 152.9947 82° East 199 229 1,400 -300 Descending Aus ATC (RADAR)
07:49PM -27.2826 153.0417 81° East 200 230 1,100 -780 Descending Aus ATC (RADAR)
07:50PM -27.2784 153.0705 81° East 214 246 500 -360 Descending Aus ATC (RADAR)
07:50PM -27.2658 153.1004 65° Northeast 206 237 800 540 Climbing Aus ATC (RADAR)
07:51PM -27.2652 153.0771 271° West 120 138 1,500 420 Climbing Aus ATC (RADAR)
07:52PM -27.2706 153.0811 147° Southeast 142 163 1,800 -900 Climbing Aus ATC (RADAR)
07:53PM -27.2657 153.1001 74° East 173 199 300 -240 Descending Aus ATC (RADAR)
07:53PM -27.2621 153.0808 282° West 136 157 1,600 180 Climbing Aus ATC (RADAR)
07:54PM -27.2646 153.0992 99° East 150 173 500 -720 Descending Aus ATC (RADAR)
07:54PM -27.2708 153.1006 168° South 120 138 700 1,020 Climbing Aus ATC (RADAR)
07:55PM -27.2685 153.0729 275° West 156 180 1,800 720 Climbing Aus ATC (RADAR)
07:56PM -27.2769 153.0552 242° Southwest 133 153 1,500 -600 Descending Aus ATC (RADAR)
07:58PM -27.3503 153.0434 188° South -660 Descending Aus ATC (Calculated)
07:59PM -27.4053 153.0346 188° South  Level Aus ATC (Calculated)
08:01PM -27.4878 153.0213 188° South  Level Aus ATC (Calculated)
08:03PM -27.5291 153.0146 188° South  Level Aus ATC (Calculated)
08:04PM -27.5703 153.0080 188° South  Level Aus ATC (Calculated)